Spring Garden, Missouri
Current Conditions -  °F | °C
As of 3:35 PM on Monday 24 Nov 2014 (Local Time) from KAIZ Reporting Station
Broken Clouds Broken Clouds  
Wind Chill:   Ceiling: 4800
Heat Index:   Visibility: 10mi
Dew Point: -3°   Wind: 9mph
Humidity: 49%   Direction: 290°WNW
Pressure: 29.83"   Gusts: NA
Location:  38.3538°N, 92.3679°W
Report Text: KAIZ 242135Z AUTO 29008KT 10SM BKN048 07/M03 A2983 RMK AO1
Loading
Personal Weather Stations






























Interactive Weather Map New forecast layout! Learn more

10-Day Weather Forecast

Advertisements
Track Severe Weather on mobile